Hauptseite
METAR-TAF:

METAR-TAF

Flughäfen :

Flughafen Damaskus

Damaskus, Syrien

Breite: 33-25N, Länge: 036-31E, Höhe: 608 m

Beobachtung

Neuester Wetterbericht von vor 49 Minuten, um 18:00 UTC
Wind 10 kt aus Süd/Südwest
Temperatur 12°C
Luftfeuchtigkeit 94%
Luftdruck 1022 hPa
Sichtweite: 8000 m
Aufgelockert bewölkt in der Höhe von 2600 ft, Towering cumulus.

METAR: OSDI 161800Z 21010KT 8000 SCT026TCU 12/11 Q1022

Zeit: 20:49 (18:49 UTC)

Prognose

Neuester Wetterbericht von vor 1 Stunde und 49 Minuten, um 17:00 UTC
Gültige Prognose vom 16 um 18 UTC bis 17 um 24 UTC
Wind 10 kt aus Südwest
Sichtweite: 8000 m
Aufgelockert bewölkt in der Höhe von 3000 ft
Durchbrochene Bewölkung in der Höhe von 10000 ft
Zeitweise
zwischen 17 und 00 UTC
Wind 3 kt aus unterschiedlichen Richtungen

TAF: OSDI 161700Z 1618/1724 22010KT 8000 SCT030 BKN100 TEMPO 17001/1706 VRB03KT 4000BR

Wetterbeobachtungen und Prognosen von mehr als 4000 Flughäfen (METAR und TAF Bericht).

Die verfügbaren Stationen werden durch gelbe und rote Markierungen auf der Karte dargestellt.

Führen Sie die Maus auf sie, um den Namen der Station zu sehen.

Darauf klicken, um die Beobachtung von Wetterbeobachtungen und Prognosen zu sehen.

Um die Karte zu ändern : klicken Sie auf den grünen Tasten mit einem schwarzen Kreuz Zum Vergrößern, auf den grünen Button mit einem Gedankenstrich zu verkleinern, oder auf die grünen Pfeile für benachbarte Karten.


METAR-TAF: